• Join FlightAware (Why Join?)
  • Login
  • US Flag 
11:10PM EDT


 

Airport Tracker/Info


-or-


 

Live Flight TrackerFlight Track Log ✈ CNS22 ✈ 12-May-2013 ✈ KPBI - KDTS

Flight Track Log - Related Links

Times and Time Zones

All times are in EDT time to prevent confusion due to time zone crossing. See the CNS22 flight status page for this flight to view local times or setup timezone preferences in your user account.

Time Position Orientation Groundspeed Altitude Reporting Facility
EDT Latitude Longitude Course Direction KTS MPH feet Rate Location/Type
09:24AM 26.7714 -80.1817 314° West 153 176 4,000  Level Miami Center
09:25AM 26.8042 -80.2128 320° Northwest 159 183 5,600 1,440 Climbing Miami Center
09:26AM 26.8369 -80.2439 320° Northwest 159 183 6,900 1,320 Climbing Miami Center
09:27AM 26.9237 -80.2842 332° Northwest  Level FlightAware Approximate
09:27AM 26.8697 -80.2728 322° Northwest 159 183 8,300  Level Miami Center
09:28AM 26.9776 -80.3207 326° Northwest  Level FlightAware Approximate
09:28AM 26.9022 -80.3064 317° Northwest 159 183 9,300  Level Miami Center
09:29AM 26.9431 -80.3450 320° Northwest 164 189 10,600 1,200 Climbing Miami Center
09:30AM 26.9714 -80.3831 310° West 159 183 11,800 1,020 Climbing Miami Center
09:31AM 26.9997 -80.4236 308° West 159 183 12,700 1,020 Climbing Miami Center
09:32AM 27.0217 -80.4614 303° West 164 189 13,900 1,080 Climbing Miami Center
09:33AM 27.0497 -80.5067 305° West 164 189 14,900 960 Climbing Miami Center
09:34AM 27.0758 -80.5472 306° West 169 194 15,900 900 Climbing Miami Center
09:35AM 27.1061 -80.5925 307° West 176 203 16,800 900 Climbing Miami Center
09:36AM 27.1281 -80.6306 303° West 171 197 17,700 720 Climbing Miami Center
09:37AM 27.1542 -80.6756 303° West 171 197 18,300 660 Climbing Miami Center
09:38AM 27.1800 -80.7161 306° West 171 197 19,100 720 Climbing Miami Center
09:39AM 27.2061 -80.7592 304° West 171 197 19,800 420 Climbing Miami Center
09:40AM 27.2383 -80.8069 307° West 176 203 20,000 60 Climbing Miami Center
09:41AM 27.2700 -80.8617 303° West 194 223 20,000  Level Miami Center
09:42AM 27.3103 -80.9214 307° West 211 243 20,000  Level Miami Center
09:43AM 27.3442 -80.9789 304° West 222 255 20,000  Level Miami Center
09:44AM 27.3800 -81.0386 304° West 222 255 20,000  Level Miami Center
09:45AM 27.4139 -81.0889 307° West 222 255 20,000  Level Miami Center
09:46AM 27.4519 -81.1489 306° West 222 255 20,000  Level Miami Center
09:47AM 27.4875 -81.2086 304° West 222 255 20,000  Level Miami Center
09:48AM 27.5256 -81.2661 307° West 227 261 20,000  Level Miami Center
09:49AM 27.5592 -81.3239 303° West 227 261 20,000  Level Miami Center
09:50AM 27.5972 -81.3814 307° West 227 261 20,000  Level Miami Center
09:51AM 27.6328 -81.4392 305° West 227 261 20,000  Level Miami Center
09:52AM 27.6686 -81.4967 305° West 227 261 20,000  Level Miami Center
09:53AM 27.7083 -81.5617 305° West 227 261 20,000  Level Miami Center
09:54AM 27.7458 -81.6219 305° West 232 267 20,000  Level Miami Center
09:55AM 27.8086 -81.7219 305° West 229 264 20,000  Level Jacksonville Center
09:56AM 27.8447 -81.7825 304° West 234 269 20,000  Level Jacksonville Center
09:57AM 27.8828 -81.8431 305° West 239 275 20,000  Level Jacksonville Center
09:58AM 27.9186 -81.9014 305° West 239 275 20,000  Level Jacksonville Center
09:59AM 27.9547 -81.9644 303° West 239 275 20,000  Level Jacksonville Center
10:00AM 27.9947 -82.0206 309° West 234 269 20,000  Level Jacksonville Center
10:01AM 28.0450 -82.0672 321° Northwest 234 269 20,000  Level Jacksonville Center
10:02AM 28.0933 -82.1114 321° Northwest 229 264 20,000  Level Jacksonville Center
10:03AM 28.1458 -82.1558 323° Northwest 223 257 20,000  Level Jacksonville Center
10:04AM 28.1836 -82.2097 309° West 228 262 20,000  Level Jacksonville Center
10:05AM 28.2153 -82.2708 300° West 223 257 20,000  Level Jacksonville Center
10:06AM 28.2489 -82.3294 303° West 223 257 20,000  Level Jacksonville Center
10:07AM 28.2803 -82.3881 301° West 223 257 20,000  Level Jacksonville Center
10:08AM 28.3119 -82.4492 300° West 223 257 20,000  Level Jacksonville Center
10:09AM 28.3414 -82.5081 300° West 223 257 20,000  Level Jacksonville Center
10:10AM 28.3750 -82.5669 303° West 223 257 20,000  Level Jacksonville Center
10:11AM 28.4064 -82.6236 302° West 223 257 20,000  Level Jacksonville Center
10:12AM 28.4397 -82.6825 303° West 223 257 20,000  Level Jacksonville Center
10:13AM 28.4711 -82.7439 300° West 223 257 20,000  Level Jacksonville Center
10:14AM 28.5108 -82.7933 312° West 218 251 20,000  Level Jacksonville Center
10:15AM 28.5653 -82.8311 329° Northwest 218 251 20,000  Level Jacksonville Center
10:16AM 28.6194 -82.8689 329° Northwest 225 259 20,000  Level Jacksonville Center
10:17AM 28.6717 -82.9044 329° Northwest 225 259 20,000  Level Jacksonville Center
10:18AM 28.7258 -82.9400 330° Northwest 225 259 20,000  Level Jacksonville Center
10:19AM 28.7781 -82.9756 329° Northwest 225 259 20,000  Level Jacksonville Center
10:20AM 28.8178 -83.0253 312° West 219 252 20,000  Level Jacksonville Center
10:21AM 28.8469 -83.0844 299° West 214 246 20,000  Level Jacksonville Center
10:22AM 28.8758 -83.1439 299° West 214 246 20,000  Level Jacksonville Center
10:23AM 28.9031 -83.2033 298° West 214 246 20,000  Level Jacksonville Center
10:24AM 28.9300 -83.2603 298° West 214 246 20,000  Level Jacksonville Center
10:25AM 28.9569 -83.3197 297° West 214 246 20,000  Level Jacksonville Center
10:26AM 28.9881 -83.3817 300° West 219 252 20,000  Level Jacksonville Center
10:27AM 29.0147 -83.4411 297° West 219 252 20,000  Level Jacksonville Center
10:28AM 29.0439 -83.5006 299° West 219 252 20,000  Level Jacksonville Center
10:29AM 29.0728 -83.5578 300° West 219 252 20,000  Level Jacksonville Center
10:30AM 29.0975 -83.6150 296° West 219 252 20,000  Level Jacksonville Center
10:31AM 29.1264 -83.6747 299° West 219 252 20,000  Level Jacksonville Center
10:32AM 29.1553 -83.7342 299° West 219 252 20,000  Level Jacksonville Center
10:33AM 29.1778 -83.7869 296° West 219 252 20,000  Level Jacksonville Center
10:34AM 29.2067 -83.8442 300° West 214 246 20,000  Level Jacksonville Center
10:35AM 29.2333 -83.9017 298° West 214 246 20,000  Level Jacksonville Center
10:36AM 29.2619 -83.9589 300° West 214 246 20,000  Level Jacksonville Center
10:37AM 29.2886 -84.0189 297° West 214 246 20,000  Level Jacksonville Center
10:38AM 29.3153 -84.0786 297° West 209 241 20,000  Level Jacksonville Center
10:39AM 29.3419 -84.1361 298° West 209 241 20,000  Level Jacksonville Center
10:40AM 29.3706 -84.1936 300° West 209 241 20,000  Level Jacksonville Center
10:41AM 29.3950 -84.2489 297° West 204 235 20,000  Level Jacksonville Center
10:42AM 29.4256 -84.3114 299° West 204 235 20,000  Level Jacksonville Center
10:43AM 29.4522 -84.3689 298° West 204 235 20,000  Level Jacksonville Center
10:44AM 29.4764 -84.4264 296° West 204 235 20,000  Level Jacksonville Center
10:45AM 29.5092 -84.4939 299° West 204 235 20,000  Level Jacksonville Center
10:46AM 29.5353 -84.5564 296° West 209 241 20,000  Level Jacksonville Center
10:47AM 29.5639 -84.6142 300° West 209 241 20,000  Level Jacksonville Center
10:48AM 29.5922 -84.6742 299° West 214 246 20,000  Level Jacksonville Center
10:49AM 29.6206 -84.7369 297° West 219 252 20,000 -480 Level Jacksonville Center
10:50AM 29.6508 -84.8044 297° West 224 258 19,100 -900 Descending Jacksonville Center
10:51AM 29.6811 -84.8744 296° West 235 270 18,200 -840 Descending Jacksonville Center
10:52AM 29.7156 -84.9419 300° West 241 277 17,500 -840 Descending Jacksonville Center
10:53AM 29.7478 -85.0119 298° West 241 277 16,600 -900 Descending Jacksonville Center
10:54AM 29.7800 -85.0844 297° West 241 277 15,700 -900 Descending Jacksonville Center
10:55AM 29.8122 -85.1569 297° West 246 283 14,800 -900 Descending Jacksonville Center
10:57AM 29.8418 -85.2278 296° West  Level FlightAware Approximate
11:04AM 30.0218 -85.6603 300° West  Level FlightAware Approximate
11:05AM 30.0515 -85.7196 300° West  Level FlightAware Approximate
11:06AM 30.0812 -85.7790 300° West  Level FlightAware Approximate
11:07AM 30.1108 -85.8383 300° West  Level FlightAware Approximate
11:08AM 30.1405 -85.8977 300° West  Level FlightAware Approximate
11:09AM 30.1680 -85.9585 296° West  Level FlightAware Approximate
11:10AM 30.1943 -86.0200 296° West  Level FlightAware Approximate
11:11AM 30.2213 -86.0811 297° West  Level FlightAware Approximate
11:12AM 30.2484 -86.1422 297° West  Level FlightAware Approximate
11:13AM 30.2813 -86.1980 319° Northwest  Level FlightAware Approximate
11:14AM 30.3038 -86.2612 291° West  Level FlightAware Approximate
11:15AM 30.3265 -86.3247 295° West  Level FlightAware Approximate
11:16AM 30.3520 -86.3867 305° West  Level FlightAware Approximate
11:17AM 30.3859 -86.4431 305° West  Level FlightAware Approximate
11:18AM 30.4000 -86.4667 305° West  Level FlightAware Approximate
11:19AM 30.4000 -86.4715 305° West  Level Estimated
11:20AM 30.4000 -86.4667 305° West  Level FlightAware Approximate
11:21AM 30.4000 -86.4715 305° West  Level Estimated
11:22AM 30.4000 -86.4667 305° West  Level FlightAware Approximate
11:23AM 30.4000 -86.4715 305° West  Level Estimated
11:24AM 30.4000 -86.4667 305° West  Level FlightAware Approximate
11:25AM 30.4000 -86.4715 305° West  Level Estimated